createdAt,value
2018-08-23T00:00:48.619Z,49.20
2018-08-23T00:01:48.641Z,47.00
2018-08-23T00:02:48.865Z,53.30
2018-08-23T00:03:48.694Z,49.00
2018-08-23T00:04:48.713Z,49.70
2018-08-23T00:05:48.740Z,53.80
2018-08-23T00:06:48.766Z,50.00
2018-08-23T00:07:48.787Z,48.10
2018-08-23T00:08:48.839Z,54.40
2018-08-23T00:09:48.839Z,50.00
2018-08-23T00:10:48.860Z,51.00
2018-08-23T00:11:48.886Z,49.10
2018-08-23T00:12:48.911Z,53.90
2018-08-23T00:13:48.939Z,47.90
2018-08-23T00:14:48.960Z,50.60
2018-08-23T00:15:48.981Z,49.40
2018-08-23T00:16:49.076Z,53.70
2018-08-23T00:17:49.030Z,49.70
2018-08-23T00:18:49.055Z,55.40
2018-08-23T00:19:49.079Z,52.90
2018-08-23T00:20:49.106Z,52.40
2018-08-23T00:21:49.129Z,49.60
2018-08-23T00:22:49.152Z,49.50
2018-08-23T00:23:49.178Z,50.00
2018-08-23T00:24:49.201Z,51.50
2018-08-23T00:25:49.227Z,52.90
2018-08-23T00:26:49.249Z,52.60
2018-08-23T00:27:49.277Z,52.20
2018-08-23T00:28:49.298Z,54.50
2018-08-23T00:29:49.321Z,55.00
2018-08-23T00:30:49.345Z,54.50
2018-08-23T00:31:49.371Z,53.30
2018-08-23T00:32:49.397Z,57.60
2018-08-23T00:33:49.420Z,53.70
2018-08-23T00:34:49.446Z,54.20
2018-08-23T00:35:49.467Z,51.50
2018-08-23T00:36:49.497Z,53.60
2018-08-23T00:37:49.516Z,51.30
2018-08-23T00:38:49.539Z,53.20
2018-08-23T00:39:49.564Z,53.40
2018-08-23T00:40:49.591Z,53.20
2018-08-23T00:41:49.615Z,51.00
2018-08-23T00:42:49.638Z,55.30
2018-08-23T00:43:49.660Z,57.00
2018-08-23T00:44:49.688Z,56.20
2018-08-23T00:45:49.710Z,55.00
2018-08-23T00:46:49.733Z,59.50
2018-08-23T00:47:49.768Z,57.90
2018-08-23T00:48:49.781Z,58.40
2018-08-23T00:49:49.807Z,57.30
2018-08-23T00:50:49.830Z,53.30
2018-08-23T00:51:49.853Z,57.30
2018-08-23T00:52:49.879Z,56.30
2018-08-23T00:53:49.905Z,56.70
2018-08-23T00:54:49.928Z,56.90
2018-08-23T00:55:49.950Z,56.20
2018-08-23T00:56:49.972Z,61.80
2018-08-23T00:57:49.997Z,58.60
2018-08-23T00:58:50.024Z,56.10
2018-08-23T00:59:50.051Z,56.90
2018-08-23T01:00:50.077Z,52.00
2018-08-23T01:01:50.093Z,55.10
2018-08-23T01:02:50.119Z,54.40
2018-08-23T01:03:50.162Z,58.30
2018-08-23T01:04:50.165Z,51.80
2018-08-23T01:05:50.191Z,50.70
2018-08-23T01:06:50.215Z,51.90
2018-08-23T01:07:50.236Z,52.00
2018-08-23T01:08:50.263Z,57.60
2018-08-23T01:09:50.283Z,53.50
2018-08-23T01:10:50.307Z,53.10
2018-08-23T01:11:50.331Z,55.10
2018-08-23T01:12:50.360Z,51.90
2018-08-23T01:13:50.381Z,52.50
2018-08-23T01:14:50.405Z,55.40
2018-08-23T01:15:50.429Z,54.50
2018-08-23T01:16:50.452Z,52.40
2018-08-23T01:17:50.477Z,55.60
2018-08-23T01:18:50.501Z,52.30
2018-08-23T01:19:50.525Z,52.60
2018-08-23T01:20:50.553Z,51.10
2018-08-23T01:21:50.572Z,53.30
2018-08-23T01:22:50.594Z,51.50
2018-08-23T01:23:50.619Z,54.40
2018-08-23T01:24:50.642Z,53.20
2018-08-23T01:25:50.667Z,51.70
2018-08-23T01:26:50.691Z,53.20
2018-08-23T01:27:50.715Z,51.10
2018-08-23T01:28:50.740Z,55.90
2018-08-23T01:29:50.761Z,52.80
2018-08-23T01:30:50.807Z,55.70
2018-08-23T01:31:50.810Z,54.60
2018-08-23T01:32:50.831Z,57.50
2018-08-23T01:33:50.854Z,56.50
2018-08-23T01:34:50.879Z,54.60
2018-08-23T01:35:50.904Z,52.90
2018-08-23T01:36:50.931Z,56.70
2018-08-23T01:37:50.951Z,59.00
2018-08-23T01:38:50.988Z,52.00
2018-08-23T01:39:50.997Z,53.00
2018-08-23T01:40:51.022Z,51.00
2018-08-23T01:41:51.044Z,56.30
2018-08-23T01:42:51.067Z,59.70
2018-08-23T01:43:51.092Z,48.20
2018-08-23T01:44:51.113Z,54.60
2018-08-23T01:45:51.139Z,52.30
2018-08-23T01:46:51.163Z,50.80
2018-08-23T01:47:51.185Z,52.20
2018-08-23T01:48:51.209Z,50.90
2018-08-23T01:49:51.231Z,54.00
2018-08-23T01:50:51.255Z,51.80
2018-08-23T01:51:51.278Z,52.20
2018-08-23T01:52:51.301Z,55.10
2018-08-23T01:53:51.328Z,51.20
2018-08-23T01:54:51.349Z,52.30
2018-08-23T01:55:51.372Z,55.10
2018-08-23T01:56:51.403Z,50.80
2018-08-23T01:57:51.419Z,56.80
2018-08-23T01:58:51.446Z,50.80
2018-08-23T01:59:51.470Z,49.10
2018-08-23T02:00:51.491Z,51.10
2018-08-23T02:01:51.516Z,57.90
2018-08-23T02:02:51.537Z,56.60
2018-08-23T02:03:51.563Z,58.60
2018-08-23T02:04:51.586Z,54.50
2018-08-23T02:05:51.607Z,53.60
2018-08-23T02:06:51.632Z,56.50
2018-08-23T02:07:51.654Z,55.80
2018-08-23T02:08:51.677Z,51.90
2018-08-23T02:09:51.702Z,54.20
2018-08-23T02:10:51.727Z,54.40
2018-08-23T02:11:51.750Z,53.70
2018-08-23T02:12:51.773Z,60.20
2018-08-23T02:13:51.794Z,52.50
2018-08-23T02:14:51.821Z,56.10
2018-08-23T02:15:51.846Z,61.50
2018-08-23T02:16:51.866Z,53.00
2018-08-23T02:17:51.893Z,54.90
2018-08-23T02:18:51.913Z,54.20
2018-08-23T02:19:51.935Z,56.60
2018-08-23T02:20:51.957Z,56.70
2018-08-23T02:21:51.981Z,51.40
2018-08-23T02:22:52.008Z,53.30
2018-08-23T02:23:52.033Z,55.30
2018-08-23T02:24:52.051Z,55.50
2018-08-23T02:25:52.076Z,51.80
2018-08-23T02:26:52.101Z,60.40
2018-08-23T02:27:52.124Z,56.60
2018-08-23T02:28:52.145Z,52.60
2018-08-23T02:29:52.169Z,56.90
2018-08-23T02:30:52.193Z,52.00
2018-08-23T02:31:52.217Z,58.00
2018-08-23T02:32:52.240Z,50.20
2018-08-23T02:33:52.260Z,53.60
2018-08-23T02:34:52.436Z,56.10
2018-08-23T02:35:52.310Z,55.90
2018-08-23T02:36:52.333Z,58.50
2018-08-23T02:37:52.356Z,59.90
2018-08-23T02:38:52.377Z,56.70
2018-08-23T02:39:52.401Z,55.80
2018-08-23T02:40:52.431Z,57.20
2018-08-23T02:41:52.454Z,53.20
2018-08-23T02:42:52.476Z,53.60
2018-08-23T02:43:52.502Z,57.00
2018-08-23T02:44:52.521Z,58.50
2018-08-23T02:45:52.545Z,54.80
2018-08-23T02:46:52.565Z,54.40
2018-08-23T02:47:52.597Z,59.10
2018-08-23T02:48:52.614Z,57.30
2018-08-23T02:49:52.635Z,59.50
2018-08-23T02:50:52.661Z,59.10
2018-08-23T02:51:52.681Z,57.30
2018-08-23T02:52:52.706Z,57.20
2018-08-23T02:53:52.730Z,65.20
2018-08-23T02:54:52.751Z,58.90
2018-08-23T02:55:52.782Z,56.80
2018-08-23T02:56:52.797Z,63.40
2018-08-23T02:57:52.820Z,64.40
2018-08-23T02:58:52.847Z,60.20
2018-08-23T02:59:52.871Z,60.20
2018-08-23T03:00:52.895Z,56.60
2018-08-23T03:01:52.916Z,56.10
2018-08-23T03:02:52.937Z,60.20
2018-08-23T03:03:52.960Z,63.00
2018-08-23T03:04:52.983Z,60.20
2018-08-23T03:05:53.012Z,57.40
2018-08-23T03:06:53.032Z,62.30
2018-08-23T03:07:53.057Z,59.10
2018-08-23T03:08:53.078Z,62.20
2018-08-23T03:09:53.101Z,62.60
2018-08-23T03:10:53.125Z,62.60
2018-08-23T03:11:53.151Z,58.80
2018-08-23T03:12:53.171Z,58.20
2018-08-23T03:13:53.199Z,62.50
2018-08-23T03:14:53.216Z,60.30
2018-08-23T03:15:53.242Z,55.20
2018-08-23T03:16:53.264Z,60.30
2018-08-23T03:17:53.286Z,56.60
2018-08-23T03:18:53.311Z,57.50
2018-08-23T03:19:53.335Z,56.30
2018-08-23T03:20:53.355Z,56.30
2018-08-23T03:21:53.377Z,58.40
2018-08-23T03:22:53.406Z,66.80
2018-08-23T03:23:53.424Z,57.50
2018-08-23T03:24:53.446Z,60.80
2018-08-23T03:25:53.472Z,61.20
2018-08-23T03:26:53.500Z,57.50
2018-08-23T03:27:53.517Z,57.10
2018-08-23T03:28:53.541Z,60.10
2018-08-23T03:29:53.564Z,59.40
2018-08-23T03:30:53.586Z,58.20
2018-08-23T03:31:53.609Z,62.20
2018-08-23T03:32:53.632Z,62.20
2018-08-23T03:33:53.656Z,66.50
2018-08-23T03:34:53.683Z,58.10
2018-08-23T03:35:53.701Z,65.50
2018-08-23T03:36:53.725Z,63.20
2018-08-23T03:37:53.750Z,57.50
2018-08-23T03:38:53.770Z,59.10
2018-08-23T03:39:53.797Z,58.80
2018-08-23T03:40:53.816Z,62.50
2018-08-23T03:41:53.839Z,61.50
2018-08-23T03:42:53.864Z,59.60
2018-08-23T03:43:53.889Z,63.60
2018-08-23T03:44:53.911Z,69.80
2018-08-23T03:45:53.934Z,66.90
2018-08-23T03:46:53.958Z,66.80
2018-08-23T03:47:53.980Z,69.20
2018-08-23T03:48:54.001Z,63.40
2018-08-23T03:49:54.028Z,70.00
2018-08-23T03:50:54.051Z,64.70
2018-08-23T03:51:54.073Z,65.60
2018-08-23T03:52:54.092Z,70.50
2018-08-23T03:53:54.118Z,71.10
2018-08-23T03:54:54.142Z,68.40
2018-08-23T03:55:54.168Z,68.70
2018-08-23T03:56:54.187Z,69.50
2018-08-23T03:57:54.209Z,68.30
2018-08-23T03:58:54.231Z,73.40
2018-08-23T03:59:54.256Z,70.40
2018-08-23T04:00:54.277Z,81.10
2018-08-23T04:01:54.301Z,71.80
2018-08-23T04:02:54.325Z,74.40
2018-08-23T04:03:54.353Z,68.10
2018-08-23T04:04:54.372Z,73.10
2018-08-23T04:05:54.446Z,78.50
2018-08-23T04:06:54.415Z,71.00
2018-08-23T04:07:54.438Z,75.20
2018-08-23T04:08:54.461Z,69.80
2018-08-23T04:09:54.483Z,72.90
2018-08-23T04:10:54.505Z,73.20
2018-08-23T04:11:54.531Z,73.80
2018-08-23T04:12:54.551Z,78.00
2018-08-23T04:13:54.577Z,71.10
2018-08-23T04:14:54.643Z,81.00
2018-08-23T04:15:54.622Z,70.70
2018-08-23T04:16:54.642Z,71.60
2018-08-23T04:17:54.665Z,69.70
2018-08-23T04:18:54.692Z,72.40
2018-08-23T04:19:54.712Z,74.30
2018-08-23T04:20:54.736Z,75.10
2018-08-23T04:21:54.757Z,74.80
2018-08-23T04:22:54.925Z,80.00
2018-08-23T04:23:54.803Z,67.90
2018-08-23T04:24:54.828Z,77.10
2018-08-23T04:25:54.848Z,79.10
2018-08-23T04:26:54.871Z,79.30
2018-08-23T04:27:54.898Z,75.80
2018-08-23T04:28:54.917Z,72.10
2018-08-23T04:29:54.939Z,73.30
2018-08-23T04:30:54.964Z,74.00
2018-08-23T04:31:54.988Z,72.80
2018-08-23T04:32:55.012Z,70.60
2018-08-23T04:33:55.033Z,71.00
2018-08-23T04:34:55.055Z,72.40
2018-08-23T04:35:55.082Z,71.30
2018-08-23T04:36:55.101Z,73.20
2018-08-23T04:37:55.126Z,70.30
2018-08-23T04:38:55.146Z,72.70
2018-08-23T04:39:55.170Z,69.40
2018-08-23T04:40:55.191Z,81.90
2018-08-23T04:41:55.216Z,75.10
2018-08-23T04:42:55.240Z,68.10
2018-08-23T04:43:55.262Z,69.80
2018-08-23T04:44:55.288Z,72.50
2018-08-23T04:45:55.308Z,67.60
2018-08-23T04:46:55.330Z,67.80
2018-08-23T04:47:55.353Z,70.50
2018-08-23T04:48:55.379Z,70.30
2018-08-23T04:49:55.398Z,70.90
2018-08-23T04:50:55.423Z,73.60
2018-08-23T04:51:55.451Z,68.80
2018-08-23T04:52:55.468Z,73.60
2018-08-23T04:53:55.491Z,72.40
2018-08-23T04:54:55.512Z,70.20
2018-08-23T04:55:55.536Z,69.90
2018-08-23T04:56:55.561Z,74.60
2018-08-23T04:57:55.585Z,70.80
2018-08-23T04:58:55.604Z,69.90
2018-08-23T04:59:55.632Z,68.90
2018-08-23T05:00:55.675Z,63.60
2018-08-23T05:01:55.673Z,68.50
2018-08-23T05:02:55.700Z,67.60
2018-08-23T05:03:55.733Z,70.80
2018-08-23T05:04:55.742Z,66.40
2018-08-23T05:05:55.765Z,69.40
2018-08-23T05:06:55.788Z,66.00
2018-08-23T05:07:55.811Z,70.10
2018-08-23T05:08:55.836Z,72.60
2018-08-23T05:09:55.868Z,68.50
2018-08-23T05:10:55.882Z,69.60
2018-08-23T05:11:55.907Z,67.60
2018-08-23T05:12:55.930Z,63.50
2018-08-23T05:13:55.986Z,62.10
2018-08-23T05:14:55.975Z,60.90
2018-08-23T05:15:55.999Z,61.50
2018-08-23T05:16:56.021Z,61.10
2018-08-23T05:17:56.048Z,61.60
2018-08-23T05:18:56.075Z,68.60
2018-08-23T05:19:56.091Z,61.40
2018-08-23T05:20:56.115Z,60.60
2018-08-23T05:21:56.134Z,65.00
2018-08-23T05:22:56.168Z,64.00
2018-08-23T05:23:56.184Z,60.00
2018-08-23T05:24:56.206Z,68.60
2018-08-23T05:25:56.228Z,66.10
2018-08-23T05:26:56.254Z,59.60
2018-08-23T05:27:56.277Z,61.20
2018-08-23T05:28:56.297Z,61.10
2018-08-23T05:29:56.381Z,56.80
2018-08-23T05:30:56.348Z,63.90
2018-08-23T05:31:56.371Z,61.00
2018-08-23T05:32:56.395Z,64.10
2018-08-23T05:33:56.415Z,56.00
2018-08-23T05:34:56.438Z,58.20
2018-08-23T05:35:56.461Z,59.90
2018-08-23T05:36:56.484Z,60.00
2018-08-23T05:37:56.507Z,64.80
2018-08-23T05:38:56.529Z,60.00
2018-08-23T05:39:56.557Z,62.90
2018-08-23T05:40:56.579Z,64.20
2018-08-23T05:41:56.599Z,64.30
2018-08-23T05:42:56.624Z,62.20
2018-08-23T05:43:56.649Z,63.60
2018-08-23T05:44:56.672Z,58.80
2018-08-23T05:45:56.697Z,56.30
2018-08-23T05:46:56.717Z,57.50
2018-08-23T05:47:56.744Z,58.60
2018-08-23T05:48:56.765Z,59.30
2018-08-23T05:49:56.791Z,57.60
2018-08-23T05:50:56.813Z,59.70
2018-08-23T05:51:56.837Z,58.10
2018-08-23T05:52:56.859Z,57.50
2018-08-23T05:53:56.884Z,59.00
2018-08-23T05:54:56.907Z,60.00
2018-08-23T05:55:56.928Z,56.80
2018-08-23T05:56:56.952Z,54.40
2018-08-23T05:57:56.980Z,56.20
2018-08-23T05:58:56.999Z,56.90
2018-08-23T05:59:57.023Z,55.30
2018-08-23T06:00:57.048Z,58.60
2018-08-23T06:01:57.073Z,56.60
2018-08-23T06:02:57.099Z,56.10
2018-08-23T06:03:57.119Z,55.30
2018-08-23T06:04:57.141Z,59.90
2018-08-23T06:05:57.166Z,55.10
2018-08-23T06:06:57.191Z,52.60
2018-08-23T06:07:57.216Z,54.50
2018-08-23T06:08:57.235Z,55.00
2018-08-23T06:09:57.263Z,54.40
2018-08-23T06:10:57.285Z,60.30
2018-08-23T06:11:57.311Z,57.50
2018-08-23T06:12:57.333Z,55.50
2018-08-23T06:13:57.358Z,56.30
2018-08-23T06:14:57.386Z,54.60
2018-08-23T06:15:57.406Z,70.90
2018-08-23T06:16:57.431Z,56.20
2018-08-23T06:17:57.451Z,58.60
2018-08-23T06:18:57.477Z,62.00
2018-08-23T06:19:57.501Z,63.80
2018-08-23T06:20:57.524Z,55.90
2018-08-23T06:21:57.546Z,56.40
2018-08-23T06:22:57.573Z,58.50
2018-08-23T06:23:57.598Z,57.20
2018-08-23T06:24:57.619Z,63.60
2018-08-23T06:25:57.643Z,54.70
2018-08-23T06:26:57.673Z,52.90
2018-08-23T06:27:57.694Z,52.60
2018-08-23T06:28:57.717Z,54.50
2018-08-23T06:29:57.739Z,52.10
2018-08-23T06:30:57.765Z,55.10
2018-08-23T06:31:57.791Z,53.20
2018-08-23T06:32:57.914Z,52.90
2018-08-23T06:33:57.885Z,54.80
2018-08-23T06:34:57.865Z,51.60
2018-08-23T06:35:57.891Z,58.20
2018-08-23T06:36:57.910Z,55.60
2018-08-23T06:37:57.935Z,53.20
2018-08-23T06:38:57.962Z,54.20
2018-08-23T06:39:57.988Z,51.60
2018-08-23T06:40:58.006Z,54.20
2018-08-23T06:41:58.031Z,52.90
2018-08-23T06:42:58.055Z,53.70
2018-08-23T06:43:58.079Z,55.40
2018-08-23T06:44:58.104Z,60.90
2018-08-23T06:45:58.178Z,51.00
2018-08-23T06:46:58.152Z,50.50
2018-08-23T06:47:58.177Z,54.60
2018-08-23T06:48:58.229Z,52.60
2018-08-23T06:49:58.225Z,51.40
2018-08-23T06:50:58.251Z,50.80
2018-08-23T06:51:58.274Z,53.30
2018-08-23T06:52:58.298Z,48.60
2018-08-23T06:53:58.324Z,50.00
2018-08-23T06:54:58.347Z,50.80
2018-08-23T06:55:58.371Z,51.20
2018-08-23T06:56:58.395Z,52.20
2018-08-23T06:57:58.422Z,53.70
2018-08-23T06:58:58.514Z,57.30
2018-08-23T06:59:58.472Z,55.20
2018-08-23T07:00:58.495Z,50.80
2018-08-23T07:01:58.522Z,54.90
2018-08-23T07:02:58.545Z,51.20
2018-08-23T07:03:58.571Z,51.00
2018-08-23T07:04:58.592Z,50.50
2018-08-23T07:05:58.639Z,54.70
2018-08-23T07:06:58.642Z,49.90
2018-08-23T07:07:58.665Z,49.90
2018-08-23T07:08:58.740Z,46.60
2018-08-23T07:09:58.712Z,51.50
2018-08-23T07:10:58.738Z,50.90
2018-08-23T07:11:58.762Z,47.10
2018-08-23T07:12:58.789Z,50.30
2018-08-23T07:13:58.810Z,50.40
2018-08-23T07:14:58.836Z,55.10
2018-08-23T07:15:58.860Z,47.50
2018-08-23T07:16:58.885Z,52.20
2018-08-23T07:17:58.913Z,49.80
2018-08-23T07:18:58.937Z,49.80
2018-08-23T07:19:58.959Z,51.20
2018-08-23T07:20:58.987Z,52.80
2018-08-23T07:21:59.007Z,49.80
2018-08-23T07:22:59.032Z,50.30
2018-08-23T07:23:59.057Z,51.50
2018-08-23T07:24:59.084Z,54.50
2018-08-23T07:25:59.108Z,54.60
2018-08-23T07:26:59.130Z,51.30
2018-08-23T07:27:59.155Z,53.00
2018-08-23T07:28:59.203Z,51.80
2018-08-23T07:29:59.246Z,51.00
2018-08-23T07:30:59.229Z,59.10
2018-08-23T07:31:59.558Z,54.70
2018-08-23T07:32:59.731Z,52.70
2018-08-23T07:33:59.328Z,51.60
2018-08-23T07:34:59.329Z,65.20
2018-08-23T07:35:59.355Z,82.10
2018-08-23T07:36:59.380Z,56.40
2018-08-23T07:37:59.404Z,53.60
2018-08-23T07:38:59.431Z,54.60
2018-08-23T07:39:59.457Z,61.10
2018-08-23T07:40:59.478Z,56.10
2018-08-23T07:41:59.503Z,48.60
2018-08-23T07:42:59.579Z,56.10
2018-08-23T07:43:59.557Z,50.60
2018-08-23T07:44:59.578Z,49.90
2018-08-23T07:45:59.617Z,48.30
2018-08-23T07:46:59.630Z,50.10
2018-08-23T07:48:00.105Z,48.90
2018-08-23T07:48:59.703Z,48.50
2018-08-23T07:49:59.703Z,51.40
2018-08-23T07:50:59.731Z,43.40
2018-08-23T07:51:59.758Z,67.20
2018-08-23T07:52:59.904Z,75.80
2018-08-23T07:53:59.805Z,49.30
2018-08-23T07:54:59.833Z,40.60
2018-08-23T07:55:59.857Z,38.50
2018-08-23T07:56:59.881Z,37.10
2018-08-23T07:57:59.907Z,39.80
2018-08-23T07:58:59.931Z,37.30
2018-08-23T07:59:59.963Z,36.30
2018-08-23T08:00:59.984Z,35.30
2018-08-23T08:02:00.008Z,34.50
2018-08-23T08:03:00.033Z,37.50
2018-08-23T08:04:00.057Z,36.10
2018-08-23T08:05:00.085Z,37.00
2018-08-23T08:06:00.107Z,35.00
2018-08-23T08:07:00.136Z,34.50
2018-08-23T08:08:00.158Z,29.90
2018-08-23T08:09:00.186Z,33.60
2018-08-23T08:10:00.211Z,31.00
2018-08-23T08:11:00.238Z,27.40
2018-08-23T08:12:00.263Z,30.40
2018-08-23T08:13:00.287Z,34.50
2018-08-23T08:14:00.311Z,37.00
2018-08-23T08:15:00.355Z,33.80
2018-08-23T08:16:00.366Z,32.20
2018-08-23T08:17:00.387Z,29.50
2018-08-23T08:18:00.417Z,32.70
2018-08-23T08:19:00.442Z,33.80
2018-08-23T08:20:00.465Z,35.30
2018-08-23T08:21:00.616Z,35.40
2018-08-23T08:22:00.517Z,29.20
2018-08-23T08:23:00.543Z,32.70
2018-08-23T08:24:00.573Z,32.00
2018-08-23T08:25:00.595Z,31.50
2018-08-23T08:26:00.623Z,34.70
2018-08-23T08:27:00.668Z,32.10
2018-08-23T08:28:00.674Z,35.30
2018-08-23T08:29:00.697Z,32.90
2018-08-23T08:30:00.723Z,31.40
2018-08-23T08:31:00.750Z,28.80
2018-08-23T08:32:00.776Z,34.70
2018-08-23T08:33:00.836Z,31.40
2018-08-23T08:34:01.077Z,31.10
2018-08-23T08:35:00.854Z,30.00
2018-08-23T08:36:00.880Z,30.30
2018-08-23T08:37:00.905Z,29.70
2018-08-23T08:38:00.931Z,36.90
2018-08-23T08:39:00.958Z,32.90
2018-08-23T08:40:00.986Z,30.20
2018-08-23T08:41:01.209Z,31.30
2018-08-23T08:42:01.069Z,32.70
2018-08-23T08:43:01.062Z,33.40
2018-08-23T08:44:01.089Z,29.70
2018-08-23T08:45:01.114Z,29.60
2018-08-23T08:46:01.141Z,31.70
2018-08-23T08:47:01.169Z,29.40
2018-08-23T08:48:01.192Z,29.40
2018-08-23T08:49:01.264Z,26.80
2018-08-23T08:50:01.243Z,24.50
2018-08-23T08:51:01.271Z,24.40
2018-08-23T08:52:01.298Z,25.70
2018-08-23T08:53:01.325Z,25.80
2018-08-23T08:54:01.347Z,24.80
2018-08-23T08:55:01.375Z,25.40
2018-08-23T08:56:01.401Z,23.80
2018-08-23T08:57:01.490Z,23.40
2018-08-23T08:58:01.453Z,25.40
2018-08-23T08:59:01.481Z,25.80
2018-08-23T09:00:01.505Z,25.20
2018-08-23T09:01:01.538Z,25.10
2018-08-23T09:02:01.561Z,23.70
2018-08-23T09:03:01.590Z,22.30
2018-08-23T09:04:01.619Z,21.50
2018-08-23T09:05:01.642Z,25.30
2018-08-23T09:06:01.663Z,23.90
2018-08-23T09:07:01.690Z,21.40
2018-08-23T09:08:01.717Z,22.90
2018-08-23T09:09:01.743Z,22.10
2018-08-23T09:10:01.767Z,20.10
2018-08-23T09:11:01.796Z,20.50
2018-08-23T09:12:01.819Z,22.20
2018-08-23T09:13:01.845Z,20.30
2018-08-23T09:14:01.874Z,23.30
2018-08-23T09:15:01.898Z,20.60
2018-08-23T09:16:01.925Z,19.40
2018-08-23T09:17:01.958Z,20.80
2018-08-23T09:18:01.981Z,19.80
2018-08-23T09:19:02.003Z,23.60
2018-08-23T09:20:02.036Z,22.10
2018-08-23T09:21:02.060Z,22.10
2018-08-23T09:22:02.082Z,21.40
2018-08-23T09:23:02.111Z,19.50
2018-08-23T09:24:02.138Z,18.60
2018-08-23T09:25:02.164Z,18.10
2018-08-23T09:26:02.190Z,20.30
2018-08-23T09:27:02.217Z,17.30
2018-08-23T09:28:02.244Z,16.90
2018-08-23T09:29:02.267Z,16.20
2018-08-23T09:30:02.297Z,18.00
2018-08-23T09:31:02.322Z,14.90
2018-08-23T09:32:02.388Z,18.10
2018-08-23T09:33:02.377Z,16.20
2018-08-23T09:34:02.401Z,15.70
2018-08-23T09:35:02.485Z,13.70
2018-08-23T09:36:02.455Z,14.00
2018-08-23T09:37:02.515Z,15.20
2018-08-23T09:38:02.510Z,17.90
2018-08-23T09:39:02.534Z,16.40
2018-08-23T09:40:02.561Z,54.90
2018-08-23T09:41:02.589Z,26.20
2018-08-23T09:42:02.614Z,17.30
2018-08-23T09:43:02.815Z,16.80
2018-08-23T09:44:02.670Z,20.40
2018-08-23T09:45:02.695Z,18.00
2018-08-23T09:46:02.721Z,18.10
2018-08-23T09:47:02.746Z,18.00
2018-08-23T09:48:02.778Z,18.60
2018-08-23T09:49:02.803Z,14.90
2018-08-23T09:50:02.869Z,13.40
2018-08-23T09:51:02.888Z,16.10
2018-08-23T09:52:02.882Z,15.70
2018-08-23T09:53:02.911Z,14.50
2018-08-23T09:54:02.936Z,17.50
2018-08-23T09:55:02.962Z,15.20
2018-08-23T09:56:02.990Z,14.00
2018-08-23T09:57:03.019Z,13.10
2018-08-23T09:58:03.045Z,18.50
2018-08-23T09:59:03.079Z,21.70
2018-08-23T10:00:03.100Z,13.00
2018-08-23T10:01:03.127Z,12.10
2018-08-23T10:02:03.154Z,14.60
2018-08-23T10:03:03.182Z,14.20
2018-08-23T10:04:03.210Z,13.40
2018-08-23T10:05:03.239Z,12.30
2018-08-23T10:06:03.265Z,17.30
2018-08-23T10:07:03.295Z,14.00
2018-08-23T10:08:03.316Z,14.10
2018-08-23T10:09:03.346Z,14.70
2018-08-23T10:10:03.370Z,33.90
2018-08-23T10:11:03.399Z,15.20
2018-08-23T10:12:03.431Z,14.40
2018-08-23T10:13:03.452Z,14.90
2018-08-23T10:14:03.481Z,15.20
2018-08-23T10:15:03.508Z,16.40
2018-08-23T10:16:03.536Z,18.60
2018-08-23T10:17:03.563Z,14.30
2018-08-23T10:18:03.590Z,16.40
2018-08-23T10:19:03.673Z,16.90
2018-08-23T10:20:03.698Z,16.40
2018-08-23T10:21:03.672Z,20.30
2018-08-23T10:22:04.153Z,17.10
2018-08-23T10:23:03.727Z,15.00
2018-08-23T10:24:03.760Z,15.10
2018-08-23T10:25:03.785Z,15.20
2018-08-23T10:26:03.809Z,19.10
2018-08-23T10:27:03.837Z,16.10
2018-08-23T10:28:03.866Z,14.70
2018-08-23T10:29:03.893Z,15.20
2018-08-23T10:30:03.924Z,15.00
2018-08-23T10:31:03.949Z,14.50
2018-08-23T10:32:04.019Z,15.60
2018-08-23T10:33:04.004Z,16.60
2018-08-23T10:34:04.032Z,14.80
2018-08-23T10:35:04.069Z,13.90
2018-08-23T10:36:04.088Z,15.90
2018-08-23T10:37:04.119Z,15.70
2018-08-23T10:38:04.195Z,15.30
2018-08-23T10:39:04.174Z,15.60
2018-08-23T10:40:04.204Z,17.40
2018-08-23T10:41:04.230Z,16.00
2018-08-23T10:42:04.316Z,15.70
2018-08-23T10:43:04.639Z,15.60
2018-08-23T10:44:04.719Z,16.20
2018-08-23T10:45:04.355Z,17.60
2018-08-23T10:46:04.372Z,16.90
2018-08-23T10:47:04.400Z,15.10
2018-08-23T10:48:04.429Z,15.70
2018-08-23T10:49:04.454Z,14.30
2018-08-23T10:50:04.485Z,13.80
2018-08-23T10:51:04.594Z,16.40
2018-08-23T10:52:04.540Z,15.50
2018-08-23T10:53:04.568Z,14.80
2018-08-23T10:54:04.600Z,16.70
2018-08-23T10:55:04.624Z,16.10
2018-08-23T10:56:04.652Z,15.60
2018-08-23T10:57:04.680Z,14.90
2018-08-23T10:58:04.711Z,16.40
2018-08-23T10:59:04.776Z,14.40
2018-08-23T11:00:04.812Z,16.20
2018-08-23T11:01:04.789Z,17.50
2018-08-23T11:02:04.820Z,18.20
2018-08-23T11:03:05.148Z,16.70
2018-08-23T11:04:04.874Z,23.50
2018-08-23T11:05:04.902Z,16.90
2018-08-23T11:06:04.957Z,18.10
2018-08-23T11:07:04.957Z,14.20
2018-08-23T11:08:04.987Z,13.90
2018-08-23T11:09:05.010Z,18.60
2018-08-23T11:10:05.041Z,16.50
2018-08-23T11:11:05.071Z,18.10
2018-08-23T11:12:05.094Z,16.80
2018-08-23T11:13:05.123Z,15.60
2018-08-23T11:14:05.151Z,17.80
2018-08-23T11:15:05.180Z,19.40
2018-08-23T11:16:05.205Z,19.70
2018-08-23T11:17:05.358Z,18.60
2018-08-23T11:18:05.263Z,19.00
2018-08-23T11:19:05.290Z,17.90
2018-08-23T11:20:05.317Z,17.30
2018-08-23T11:21:05.347Z,17.90
2018-08-23T11:22:05.370Z,18.20
2018-08-23T11:23:05.414Z,17.20
2018-08-23T11:24:05.425Z,17.40
2018-08-23T11:25:05.463Z,18.20
2018-08-23T11:26:05.480Z,18.20
2018-08-23T11:27:05.511Z,17.20
2018-08-23T11:28:05.538Z,17.50
2018-08-23T11:29:05.564Z,17.00
2018-08-23T11:30:05.590Z,19.50
2018-08-23T11:31:05.620Z,18.20
2018-08-23T11:32:05.646Z,18.80
2018-08-23T11:33:05.673Z,18.80
2018-08-23T11:34:05.702Z,17.70
2018-08-23T11:35:05.733Z,17.10
2018-08-23T11:36:05.758Z,16.20
2018-08-23T11:37:05.786Z,16.60
2018-08-23T11:38:05.817Z,17.40
2018-08-23T11:39:05.943Z,15.30
2018-08-23T11:40:05.871Z,17.00
2018-08-23T11:41:05.899Z,16.00
2018-08-23T11:42:05.926Z,16.60
2018-08-23T11:43:05.955Z,16.30
2018-08-23T11:44:05.981Z,14.10
2018-08-23T11:45:06.010Z,15.70
2018-08-23T11:46:06.036Z,16.40
2018-08-23T11:47:06.064Z,16.00
2018-08-23T11:48:06.091Z,16.00
2018-08-23T11:49:06.122Z,16.50
2018-08-23T11:50:06.148Z,16.60
2018-08-23T11:51:06.176Z,17.20
2018-08-23T11:52:06.207Z,17.10
2018-08-23T11:53:06.277Z,15.00
2018-08-23T11:54:06.260Z,14.10
2018-08-23T11:55:06.288Z,15.40
2018-08-23T11:56:06.322Z,13.60
2018-08-23T11:57:06.344Z,16.90
2018-08-23T11:58:06.466Z,15.10
2018-08-23T11:59:06.465Z,14.00
2018-08-23T12:00:06.432Z,12.80
2018-08-23T12:01:06.458Z,13.30
2018-08-23T12:02:06.484Z,13.60
2018-08-23T12:03:06.514Z,15.50
2018-08-23T12:04:06.545Z,14.70
2018-08-23T12:05:06.568Z,15.60
2018-08-23T12:06:06.597Z,14.40
2018-08-23T12:07:06.634Z,14.40
2018-08-23T12:08:06.657Z,13.10
2018-08-23T12:09:06.684Z,13.60
2018-08-23T12:10:06.711Z,15.10
2018-08-23T12:11:06.740Z,16.30
2018-08-23T12:12:06.769Z,15.10
2018-08-23T12:13:06.797Z,14.50
2018-08-23T12:14:06.825Z,14.30
2018-08-23T12:15:06.854Z,15.00
2018-08-23T12:16:06.908Z,14.40
2018-08-23T12:17:06.907Z,14.30
2018-08-23T12:18:06.935Z,13.80
2018-08-23T12:19:07.016Z,19.70
2018-08-23T12:20:06.995Z,15.30
2018-08-23T12:21:07.022Z,14.70
2018-08-23T12:22:07.048Z,15.20
2018-08-23T12:23:07.077Z,13.50
2018-08-23T12:24:07.104Z,14.30
2018-08-23T12:25:07.135Z,11.90
2018-08-23T12:26:07.190Z,12.00
2018-08-23T12:27:07.192Z,12.10
2018-08-23T12:28:07.220Z,11.70
2018-08-23T12:29:07.248Z,12.20
2018-08-23T12:30:07.273Z,12.60
2018-08-23T12:31:07.308Z,11.80
2018-08-23T12:32:07.332Z,12.50
2018-08-23T12:33:07.357Z,12.10
2018-08-23T12:34:07.387Z,10.20
2018-08-23T12:35:07.417Z,12.80
2018-08-23T12:36:07.445Z,12.40
2018-08-23T12:37:07.471Z,11.00
2018-08-23T12:38:07.519Z,10.20
2018-08-23T12:39:07.832Z,12.60
2018-08-23T12:40:07.560Z,11.10
2018-08-23T12:41:07.651Z,13.60
2018-08-23T12:42:07.613Z,9.30
2018-08-23T12:43:07.644Z,11.10
2018-08-23T12:44:07.669Z,16.60
2018-08-23T12:45:07.699Z,17.80
2018-08-23T12:46:07.729Z,12.90
2018-08-23T12:47:07.757Z,12.50
2018-08-23T12:48:07.782Z,11.30
2018-08-23T12:49:07.810Z,13.10
2018-08-23T12:50:07.838Z,15.60
2018-08-23T12:51:07.867Z,16.70
2018-08-23T12:52:07.895Z,20.70
2018-08-23T12:53:07.932Z,16.80